CYHK

Gjoa Haven Airport

Gjoa Haven, Canada
METAR CYHK 170733Z AUTO 24007KT 3SM -SN FEW031 OVC042 M25/M28 A2962 RMK SLP038
Observed Flight Rules
Dec-17 @ 07:33 UTC (41 minutes ago) Marginal Visual Flight Rules
Wind Visibility Clouds Conditions
240° at 7 knots 3 miles
  • Few at 3,100' AGL
  • Overcast at 4,200' AGL
  • Light Snow
Temperatures Readings
Current -25°C / -13°F
Dewpoint -28°C / -18°F
Humidity 76%
Altimeter 29.62" Hg
Pressure 1003.8 hPa
Elevation 46
METAR CYHK 170733Z AUTO 24007KT 3SM -SN FEW031 OVC042 M25/M28 A2962 RMK SLP038
Observed Flight Rules
Dec-17 @ 07:33 UTC
(41 minutes ago)
MVFR
Wind Visibility
240° at 7 knots 3 miles
Clouds
  • Few at 3,100' AGL
  • Overcast at 4,200' AGL
Conditions
  • Light Snow
Temperature Dewpoint
-25°C / -13°F -28°C / -18°F
Humidity Altimeter Pressure
76% 29.62" Hg 1003.8 hPa